Time;durP1;ratioP1;P1;durP2;ratioP2;P2;SDS_P1;SDS_P2;PMS_P1;PMS_P2;Temp;Humidity;BMP_temperature;BMP_pressure;BME280_temperature;BME280_humidity;BME280_pressure;Samples;Min_cycle;Max_cycle;Signal;HPM_P1;HPM_P2
2023/12/11 00:01:13;;;;;;;23.60;13.77;;;11.30;99.90;;;;;;5136475;28;20019;-76
2023/12/11 00:03:39;;;;;;;20.50;10.63;;;11.30;99.90;;;;;;5114547;28;20020;-76
2023/12/11 00:06:04;;;;;;;20.00;12.23;;;11.30;99.90;;;;;;5128808;28;20023;-76
2023/12/11 00:08:32;;;;;;;21.73;10.60;;;11.30;99.90;;;;;;5117537;28;20553;-76
2023/12/11 00:10:58;;;;;;;14.10;10.40;;;11.40;99.90;;;;;;5136335;28;20030;-77
2023/12/11 00:13:24;;;;;;;12.38;9.07;;;11.50;99.90;;;;;;5114473;28;20494;-76
2023/12/11 00:15:49;;;;;;;23.70;9.45;;;11.50;99.90;;;;;;5128006;28;20023;-76
2023/12/11 00:18:15;;;;;;;14.98;8.95;;;11.50;99.90;;;;;;5139591;27;20027;-76
2023/12/11 00:20:41;;;;;;;12.13;9.07;;;11.50;99.90;;;;;;5119518;27;20024;-77
2023/12/11 00:23:06;;;;;;;10.95;7.88;;;11.50;99.90;;;;;;5138152;27;20072;-77
2023/12/11 00:25:35;;;;;;;10.13;8.30;;;11.50;99.90;;;;;;5140021;27;20031;-77
2023/12/11 00:28:00;;;;;;;12.65;8.48;;;11.50;99.90;;;;;;5139973;27;20007;-77
2023/12/11 00:30:26;;;;;;;12.52;8.68;;;11.50;99.90;;;;;;5139962;27;20031;-77
2023/12/11 00:32:53;;;;;;;10.05;7.75;;;11.40;99.90;;;;;;5121366;27;20016;-77
2023/12/11 00:35:18;;;;;;;10.35;7.03;;;11.30;99.90;;;;;;5139966;27;20023;-77
2023/12/11 00:37:44;;;;;;;9.95;7.65;;;11.30;99.90;;;;;;5139541;27;20030;-77
2023/12/11 00:40:09;;;;;;;11.02;8.00;;;11.30;99.90;;;;;;5139755;27;20382;-77
2023/12/11 00:42:35;;;;;;;16.48;8.48;;;11.20;99.90;;;;;;5121118;27;20019;-76
2023/12/11 00:45:01;;;;;;;11.00;7.40;;;11.20;99.90;;;;;;5121252;27;20031;-76
2023/12/11 00:47:26;;;;;;;13.60;8.02;;;11.20;99.90;;;;;;5139640;27;20030;-76
2023/12/11 00:49:52;;;;;;;11.52;7.95;;;11.20;99.90;;;;;;5121093;27;20046;-76
2023/12/11 00:52:17;;;;;;;10.57;7.10;;;11.20;99.90;;;;;;5120809;27;20038;-77
2023/12/11 00:54:43;;;;;;;12.68;6.50;;;11.30;99.90;;;;;;5139323;27;20061;-77
2023/12/11 00:57:09;;;;;;;12.07;6.80;;;11.30;99.90;;;;;;5139404;27;20034;-77
2023/12/11 00:59:35;;;;;;;10.13;6.25;;;11.20;99.90;;;;;;5139455;27;20059;-76
2023/12/11 01:02:00;;;;;;;8.45;6.80;;;11.10;99.90;;;;;;5139232;27;20023;-77
2023/12/11 01:04:26;;;;;;;7.13;5.47;;;11.10;99.90;;;;;;5139377;27;20030;-76
2023/12/11 01:06:52;;;;;;;8.68;5.82;;;11.00;99.90;;;;;;5139129;27;20012;-76
2023/12/11 01:09:17;;;;;;;12.75;7.10;;;10.90;99.90;;;;;;5139040;27;20047;-76
2023/12/11 01:11:43;;;;;;;8.85;6.35;;;10.90;99.90;;;;;;5117297;28;20055;-77
2023/12/11 01:14:08;;;;;;;9.23;6.03;;;10.80;99.90;;;;;;5130429;27;20066;-77
2023/12/11 01:16:34;;;;;;;8.80;7.47;;;10.80;99.90;;;;;;5139066;27;20034;-77
2023/12/11 01:19:00;;;;;;;13.38;7.25;;;10.80;99.90;;;;;;5134255;27;20034;-76
2023/12/11 01:21:25;;;;;;;7.47;6.28;;;10.80;99.90;;;;;;5136257;27;20023;-76
2023/12/11 01:23:51;;;;;;;9.20;6.05;;;10.90;99.90;;;;;;5120320;27;20027;-76
2023/12/11 01:26:17;;;;;;;9.60;6.97;;;10.90;99.90;;;;;;5120336;27;20431;-76
2023/12/11 01:28:42;;;;;;;12.18;6.70;;;10.90;99.90;;;;;;5138076;27;20504;-76
2023/12/11 01:31:08;;;;;;;9.77;6.82;;;10.80;99.90;;;;;;5138699;27;20038;-76
2023/12/11 01:33:34;;;;;;;12.00;6.80;;;10.70;99.90;;;;;;5138783;27;20070;-76
2023/12/11 01:35:59;;;;;;;12.77;6.97;;;10.70;99.90;;;;;;5138564;27;20026;-76
2023/12/11 01:38:25;;;;;;;11.40;6.40;;;10.70;99.90;;;;;;5138432;27;20387;-76
2023/12/11 01:40:50;;;;;;;7.85;6.35;;;10.70;99.90;;;;;;5138502;27;20130;-76
2023/12/11 01:43:18;;;;;;;7.88;5.90;;;10.70;99.90;;;;;;5120264;27;20080;-76
2023/12/11 01:45:45;;;;;;;6.75;5.28;;;10.70;99.90;;;;;;5119950;27;20042;-76
2023/12/11 01:48:11;;;;;;;10.45;5.32;;;10.70;99.90;;;;;;5119975;27;20052;-76
2023/12/11 01:50:38;;;;;;;7.85;5.72;;;10.70;99.90;;;;;;5138472;27;20062;-77
2023/12/11 01:53:05;;;;;;;13.27;5.45;;;10.70;99.90;;;;;;5119534;27;20078;-77
2023/12/11 01:55:32;;;;;;;9.32;6.20;;;10.60;99.90;;;;;;5138225;27;20042;-77
2023/12/11 01:57:58;;;;;;;8.30;5.78;;;10.70;99.90;;;;;;5119740;27;20031;-77
2023/12/11 02:00:24;;;;;;;11.32;6.00;;;10.70;99.90;;;;;;5138041;27;20440;-76
2023/12/11 02:02:50;;;;;;;12.43;6.22;;;10.70;99.90;;;;;;5138150;27;20038;-77
2023/12/11 02:05:16;;;;;;;9.63;5.22;;;10.70;99.90;;;;;;5119534;27;20023;-77
2023/12/11 02:07:42;;;;;;;11.88;6.30;;;10.60;99.90;;;;;;5137787;27;20030;-77
2023/12/11 02:10:09;;;;;;;13.73;5.60;;;10.60;99.90;;;;;;5138111;27;20023;-77
2023/12/11 02:12:34;;;;;;;8.98;5.95;;;10.60;99.90;;;;;;5137997;27;20087;-77
2023/12/11 02:15:00;;;;;;;11.60;5.72;;;10.60;99.90;;;;;;5137771;27;20019;-77
2023/12/11 02:17:25;;;;;;;10.15;5.65;;;10.50;99.90;;;;;;5137933;27;20031;-77
2023/12/11 02:19:51;;;;;;;11.43;5.47;;;10.50;99.90;;;;;;5119140;27;20106;-77
2023/12/11 02:22:17;;;;;;;12.90;5.78;;;10.40;99.90;;;;;;5137312;27;20031;-76
2023/12/11 02:24:49;;;;;;;10.93;6.18;;;10.50;99.90;;;;;;5137720;27;20475;-77
2023/12/11 02:27:14;;;;;;;11.45;6.25;;;10.50;99.90;;;;;;5137705;27;20054;-76
2023/12/11 02:29:40;;;;;;;10.27;5.90;;;10.50;99.90;;;;;;5137618;27;20016;-77
2023/12/11 02:32:06;;;;;;;9.50;6.45;;;10.40;99.90;;;;;;5137636;27;20035;-77
2023/12/11 02:34:33;;;;;;;9.90;6.03;;;10.40;99.90;;;;;;5137495;27;20019;-77
2023/12/11 02:36:58;;;;;;;14.77;6.55;;;10.40;99.90;;;;;;5137256;27;20031;-76
2023/12/11 02:39:24;;;;;;;7.85;6.10;;;10.40;99.90;;;;;;5137447;27;20087;-76
2023/12/11 02:41:49;;;;;;;13.20;6.28;;;10.40;99.90;;;;;;5137409;27;20023;-76
2023/12/11 02:44:15;;;;;;;7.13;5.53;;;10.40;99.90;;;;;;5137335;27;20681;-76
2023/12/11 02:46:41;;;;;;;6.65;5.57;;;10.40;99.90;;;;;;5118832;27;20495;-76
2023/12/11 02:49:06;;;;;;;8.25;5.78;;;10.40;99.90;;;;;;5137330;27;20023;-76
2023/12/11 02:51:32;;;;;;;11.07;6.15;;;10.30;99.90;;;;;;5118657;27;20026;-76
2023/12/11 02:53:57;;;;;;;11.07;5.85;;;10.30;99.90;;;;;;5114966;28;20264;-76
2023/12/11 02:56:23;;;;;;;11.38;6.28;;;10.40;99.90;;;;;;5116649;28;20102;-76
2023/12/11 02:58:48;;;;;;;9.45;6.00;;;10.50;99.90;;;;;;5116519;28;20032;-77
2023/12/11 03:01:15;;;;;;;13.18;7.03;;;10.50;99.90;;;;;;5116465;28;20388;-76
2023/12/11 03:03:41;;;;;;;24.30;5.70;;;10.60;99.90;;;;;;5116510;28;20090;-76
2023/12/11 03:06:08;;;;;;;10.68;5.20;;;10.50;99.90;;;;;;5116493;28;20055;-76
2023/12/11 03:08:36;;;;;;;9.57;4.82;;;10.40;99.90;;;;;;5104601;28;20012;-76
2023/12/11 03:11:02;;;;;;;7.72;4.90;;;10.30;99.90;;;;;;5088704;28;20074;-76
2023/12/11 03:13:27;;;;;;;7.68;4.45;;;10.30;99.90;;;;;;5094698;28;20031;-76
2023/12/11 03:15:53;;;;;;;10.77;5.72;;;10.20;99.90;;;;;;5095978;28;20028;-76
2023/12/11 03:18:19;;;;;;;6.28;5.35;;;10.20;99.90;;;;;;5094587;28;20032;-76
2023/12/11 03:20:44;;;;;;;5.00;4.25;;;10.10;99.90;;;;;;5089088;28;20426;-76
2023/12/11 03:23:10;;;;;;;8.48;4.85;;;10.10;99.90;;;;;;5095537;28;20109;-76
2023/12/11 03:25:36;;;;;;;7.40;4.60;;;10.10;99.90;;;;;;5095919;28;20523;-76
2023/12/11 03:28:02;;;;;;;6.70;4.47;;;10.10;99.90;;;;;;5096097;28;20032;-76
2023/12/11 03:30:27;;;;;;;5.30;4.53;;;10.20;99.90;;;;;;5095745;28;20028;-76
2023/12/11 03:32:53;;;;;;;8.55;4.10;;;10.20;99.90;;;;;;5095170;28;20103;-76
2023/12/11 03:35:18;;;;;;;5.00;4.50;;;10.20;99.90;;;;;;5095684;28;20034;-77
2023/12/11 03:37:44;;;;;;;5.95;4.30;;;10.20;99.90;;;;;;5094753;28;20017;-77
2023/12/11 03:40:10;;;;;;;4.45;3.80;;;10.20;99.90;;;;;;5093665;28;20024;-76
2023/12/11 03:42:36;;;;;;;7.45;4.32;;;10.30;99.90;;;;;;5095679;28;20449;-76
2023/12/11 03:45:02;;;;;;;5.70;4.07;;;10.30;99.90;;;;;;5095729;28;20024;-76
2023/12/11 03:47:27;;;;;;;7.35;5.35;;;10.20;99.90;;;;;;5095763;28;20020;-76
2023/12/11 03:49:53;;;;;;;8.40;6.53;;;10.20;99.90;;;;;;5095701;28;20051;-76
2023/12/11 03:52:19;;;;;;;9.25;8.20;;;10.20;99.90;;;;;;5095759;28;20062;-76
2023/12/11 03:54:44;;;;;;;7.47;6.25;;;10.20;99.90;;;;;;5111778;28;20044;-76
2023/12/11 03:57:10;;;;;;;8.27;6.35;;;10.20;99.90;;;;;;5118169;28;20027;-76
2023/12/11 03:59:36;;;;;;;8.55;5.80;;;10.20;99.90;;;;;;5120099;28;20034;-76
2023/12/11 04:02:02;;;;;;;7.63;5.55;;;10.20;99.90;;;;;;5119579;28;20395;-76
2023/12/11 04:04:28;;;;;;;9.35;5.47;;;10.10;99.90;;;;;;5119797;28;20034;-76
2023/12/11 04:06:53;;;;;;;10.55;7.20;;;10.10;99.90;;;;;;5117590;28;20032;-76
2023/12/11 04:09:19;;;;;;;8.02;6.57;;;10.10;99.90;;;;;;5118235;28;20028;-76
2023/12/11 04:11:45;;;;;;;7.68;5.68;;;10.00;99.90;;;;;;5118237;28;20503;-76
2023/12/11 04:14:11;;;;;;;6.78;5.18;;;10.00;99.90;;;;;;5119758;28;20028;-76
2023/12/11 04:16:41;;;;;;;5.90;5.05;;;9.90;99.90;;;;;;5119643;28;20024;-76
2023/12/11 04:19:07;;;;;;;7.35;5.85;;;9.90;99.90;;;;;;5114227;28;20031;-76
2023/12/11 04:21:33;;;;;;;6.93;5.75;;;9.90;99.90;;;;;;5118090;28;20024;-76
2023/12/11 04:23:58;;;;;;;10.95;5.00;;;9.80;99.90;;;;;;5119657;28;20080;-76
2023/12/11 04:26:24;;;;;;;7.82;4.72;;;9.80;99.90;;;;;;5119727;28;20386;-76
2023/12/11 04:28:50;;;;;;;13.32;6.20;;;9.80;99.90;;;;;;5118086;28;20024;-76
2023/12/11 04:31:15;;;;;;;9.68;5.20;;;9.80;99.90;;;;;;5119329;28;20106;-76
2023/12/11 04:33:41;;;;;;;7.25;5.60;;;9.80;99.90;;;;;;5119354;28;20449;-76
2023/12/11 04:36:08;;;;;;;7.75;5.20;;;9.80;99.90;;;;;;5119235;28;20027;-76
2023/12/11 04:38:34;;;;;;;8.27;6.20;;;9.80;99.90;;;;;;5118935;28;20036;-76
2023/12/11 04:41:00;;;;;;;4.80;4.13;;;9.90;99.90;;;;;;5119102;28;20031;-76
2023/12/11 04:43:25;;;;;;;6.57;4.25;;;9.90;99.90;;;;;;5117889;28;20077;-76
2023/12/11 04:45:51;;;;;;;4.63;4.20;;;9.90;99.90;;;;;;5119100;28;20028;-76
2023/12/11 04:48:17;;;;;;;8.23;5.28;;;10.00;99.90;;;;;;5119095;28;20051;-76
2023/12/11 04:50:42;;;;;;;4.25;3.55;;;10.00;99.90;;;;;;5119043;28;20031;-76
2023/12/11 04:53:08;;;;;;;5.97;3.80;;;10.10;99.90;;;;;;5121970;27;20039;-76
2023/12/11 04:55:33;;;;;;;4.65;3.65;;;10.10;99.90;;;;;;5139470;27;20543;-76
2023/12/11 04:57:59;;;;;;;4.22;3.83;;;10.20;99.90;;;;;;5139426;27;20033;-76
2023/12/11 05:00:25;;;;;;;4.85;3.58;;;10.20;99.90;;;;;;5138833;27;20031;-76
2023/12/11 05:02:50;;;;;;;8.45;5.60;;;10.20;99.90;;;;;;5137948;27;20391;-76
2023/12/11 05:05:16;;;;;;;5.88;4.00;;;10.20;99.90;;;;;;5138652;27;20023;-76
2023/12/11 05:07:42;;;;;;;6.65;5.85;;;10.10;99.90;;;;;;5139018;27;20027;-76
2023/12/11 05:10:08;;;;;;;5.68;4.90;;;10.10;99.90;;;;;;5120535;27;20111;-76
2023/12/11 05:12:34;;;;;;;11.48;6.00;;;10.00;99.90;;;;;;5120686;27;20034;-76
2023/12/11 05:15:01;;;;;;;7.40;5.13;;;10.00;99.90;;;;;;5120274;27;20034;-77
2023/12/11 05:17:27;;;;;;;6.50;5.03;;;10.00;99.90;;;;;;5139175;27;20459;-76
2023/12/11 05:19:54;;;;;;;10.68;7.68;;;10.10;99.90;;;;;;5132500;27;20084;-76
2023/12/11 05:22:19;;;;;;;6.50;4.70;;;10.10;99.90;;;;;;5138483;27;20083;-76
2023/12/11 05:24:45;;;;;;;9.60;4.90;;;10.10;99.90;;;;;;5138868;27;20450;-76
2023/12/11 05:27:11;;;;;;;15.90;6.18;;;10.10;99.90;;;;;;5120421;27;20384;-76
2023/12/11 05:29:37;;;;;;;8.00;6.15;;;10.00;99.90;;;;;;5138965;27;20015;-76
2023/12/11 05:32:03;;;;;;;8.40;5.93;;;9.90;99.90;;;;;;5138758;27;20038;-76
2023/12/11 05:34:29;;;;;;;7.57;4.80;;;9.90;99.90;;;;;;5120110;27;20065;-76
2023/12/11 05:36:54;;;;;;;7.65;4.32;;;9.80;99.90;;;;;;5138417;27;20473;-76
2023/12/11 05:39:20;;;;;;;7.28;4.25;;;9.70;99.90;;;;;;5120101;27;20027;-76
2023/12/11 05:41:46;;;;;;;4.47;4.03;;;9.70;99.90;;;;;;5119984;27;20571;-76
2023/12/11 05:44:11;;;;;;;5.63;4.07;;;9.60;99.90;;;;;;5138460;27;20386;-76
2023/12/11 05:46:37;;;;;;;5.45;3.90;;;9.60;99.90;;;;;;5138495;27;20019;-76
2023/12/11 05:49:03;;;;;;;5.00;3.63;;;9.50;99.90;;;;;;5138453;27;20043;-76
2023/12/11 05:51:28;;;;;;;9.43;4.28;;;9.50;99.90;;;;;;5138276;27;20110;-76
2023/12/11 05:53:57;;;;;;;6.80;4.10;;;9.40;99.90;;;;;;5119423;27;20081;-76
2023/12/11 05:56:22;;;;;;;4.88;3.90;;;9.40;99.90;;;;;;5138273;27;20031;-76
2023/12/11 05:58:48;;;;;;;7.75;4.13;;;9.40;99.90;;;;;;5138208;27;20495;-76
2023/12/11 06:01:13;;;;;;;6.05;4.25;;;9.30;99.90;;;;;;5138111;27;20034;-76
2023/12/11 06:03:39;;;;;;;6.50;4.47;;;9.30;99.90;;;;;;5138027;27;20047;-76
2023/12/11 06:06:13;;;;;;;11.43;4.90;;;9.30;99.90;;;;;;5138080;27;20023;-76
2023/12/11 06:08:39;;;;;;;6.43;4.88;;;9.30;99.90;;;;;;5119206;27;20474;-76
2023/12/11 06:11:05;;;;;;;4.75;4.20;;;9.30;99.90;;;;;;5137956;27;20055;-76
2023/12/11 06:13:30;;;;;;;7.78;4.82;;;9.30;99.90;;;;;;5137935;27;20395;-76
2023/12/11 06:15:56;;;;;;;8.45;4.85;;;9.40;99.90;;;;;;5137529;27;20035;-76
2023/12/11 06:18:22;;;;;;;8.45;4.88;;;9.30;99.90;;;;;;5137821;27;20138;-76
2023/12/11 06:20:47;;;;;;;7.65;5.13;;;9.20;99.90;;;;;;5130750;27;20542;-76
2023/12/11 06:23:13;;;;;;;8.57;5.43;;;9.20;99.90;;;;;;5137287;27;20019;-76
2023/12/11 06:25:39;;;;;;;7.63;4.90;;;9.20;99.90;;;;;;5119252;27;20114;-76
2023/12/11 06:28:04;;;;;;;6.85;4.78;;;9.10;99.90;;;;;;5137612;27;20102;-76
2023/12/11 06:30:30;;;;;;;10.05;5.05;;;9.10;99.90;;;;;;5119143;27;20033;-76
2023/12/11 06:32:56;;;;;;;7.55;5.57;;;9.10;99.90;;;;;;5119005;27;20023;-76
2023/12/11 06:35:21;;;;;;;10.15;5.22;;;9.00;99.90;;;;;;5137583;27;20027;-76
2023/12/11 06:37:47;;;;;;;7.55;5.32;;;9.00;99.90;;;;;;5137074;27;20111;-76
2023/12/11 06:40:13;;;;;;;9.15;4.95;;;9.00;99.90;;;;;;5118925;27;20023;-76
2023/12/11 06:42:39;;;;;;;12.55;5.45;;;8.90;99.90;;;;;;5137298;27;20033;-76
2023/12/11 06:45:06;;;;;;;8.50;5.63;;;8.90;99.90;;;;;;5137344;27;20015;-76
2023/12/11 06:47:32;;;;;;;9.88;5.55;;;8.90;99.90;;;;;;5118871;27;20050;-76
2023/12/11 06:49:57;;;;;;;9.82;6.38;;;8.90;99.90;;;;;;5137304;27;20031;-76
2023/12/11 06:52:25;;;;;;;11.25;6.43;;;8.90;99.90;;;;;;5136985;27;20398;-76
2023/12/11 06:54:50;;;;;;;10.40;6.13;;;8.80;99.90;;;;;;5137037;27;20043;-76
2023/12/11 06:57:16;;;;;;;9.30;6.60;;;8.80;99.90;;;;;;5118515;27;20030;-75
2023/12/11 06:59:42;;;;;;;15.43;6.95;;;8.90;99.90;;;;;;5136329;27;20079;-76
2023/12/11 07:02:07;;;;;;;13.48;6.80;;;9.00;99.90;;;;;;5135954;27;20159;-77
2023/12/11 07:04:33;;;;;;;10.93;6.43;;;9.00;99.90;;;;;;5136977;27;20039;-76
2023/12/11 07:06:59;;;;;;;9.82;7.68;;;9.00;99.90;;;;;;5118185;27;20073;-76
2023/12/11 07:09:26;;;;;;;15.07;8.23;;;9.00;99.90;;;;;;5136766;27;20368;-76
2023/12/11 07:11:51;;;;;;;11.48;8.55;;;8.90;99.90;;;;;;5114975;28;20027;-76
2023/12/11 07:14:18;;;;;;;13.07;8.07;;;8.90;99.90;;;;;;5107816;28;20035;-76
2023/12/11 07:16:44;;;;;;;12.60;9.07;;;8.90;99.90;;;;;;5136582;27;20027;-76
2023/12/11 07:19:09;;;;;;;11.60;8.52;;;8.90;99.90;;;;;;5112087;28;20127;-76
2023/12/11 07:21:35;;;;;;;12.20;7.18;;;8.80;99.90;;;;;;5136288;27;20027;-76
2023/12/11 07:24:02;;;;;;;12.73;7.95;;;8.80;99.90;;;;;;5136545;28;20059;-76
2023/12/11 07:26:28;;;;;;;10.98;7.07;;;8.70;99.90;;;;;;5136012;27;20024;-76
2023/12/11 07:28:54;;;;;;;13.00;7.38;;;8.70;99.90;;;;;;5136703;28;20027;-76
2023/12/11 07:31:20;;;;;;;11.15;7.32;;;8.60;99.90;;;;;;5114660;28;20023;-76
2023/12/11 07:33:45;;;;;;;13.45;7.55;;;8.70;99.90;;;;;;5110739;28;20027;-76
2023/12/11 07:36:12;;;;;;;11.32;6.60;;;8.70;99.90;;;;;;5118042;28;20030;-76
2023/12/11 07:38:37;;;;;;;8.65;6.80;;;8.70;99.90;;;;;;5136319;28;20035;-76
2023/12/11 07:41:04;;;;;;;9.80;6.80;;;8.70;99.90;;;;;;5136483;28;20042;-76
2023/12/11 07:43:30;;;;;;;9.45;6.80;;;8.70;99.90;;;;;;5136591;28;20135;-76
2023/12/11 07:45:56;;;;;;;8.60;6.85;;;8.80;99.90;;;;;;5118174;28;20039;-76
2023/12/11 07:48:21;;;;;;;12.38;8.13;;;8.90;99.90;;;;;;5118090;28;20051;-76
2023/12/11 07:50:47;;;;;;;13.30;8.40;;;9.00;99.90;;;;;;5136419;28;20094;-76
2023/12/11 07:53:13;;;;;;;13.00;9.32;;;9.20;99.90;;;;;;5136137;28;20099;-76
2023/12/11 07:55:38;;;;;;;17.55;12.35;;;9.30;99.90;;;;;;5117998;28;20035;-76
2023/12/11 07:58:04;;;;;;;23.33;18.80;;;9.30;99.90;;;;;;5114556;28;20027;-76
2023/12/11 08:00:30;;;;;;;27.77;18.00;;;9.40;99.90;;;;;;5116634;28;20034;-76
2023/12/11 08:02:56;;;;;;;26.73;16.50;;;9.40;99.90;;;;;;5118231;28;20019;-76
2023/12/11 08:05:22;;;;;;;18.00;14.65;;;9.40;99.90;;;;;;5136359;28;20440;-76
2023/12/11 08:07:47;;;;;;;21.02;14.25;;;9.50;99.90;;;;;;5117579;28;20035;-76
2023/12/11 08:10:13;;;;;;;19.00;13.82;;;9.60;99.90;;;;;;5136158;28;20019;-76
2023/12/11 08:12:38;;;;;;;17.85;14.00;;;9.70;99.90;;;;;;5117875;28;20073;-76
2023/12/11 08:15:05;;;;;;;16.85;12.68;;;9.80;99.90;;;;;;5117565;28;20034;-76
2023/12/11 08:17:31;;;;;;;19.60;13.88;;;9.80;99.90;;;;;;5136277;28;20080;-76
2023/12/11 08:19:57;;;;;;;16.17;11.98;;;9.80;99.90;;;;;;5114430;28;20031;-76
2023/12/11 08:22:22;;;;;;;18.13;12.73;;;9.90;99.90;;;;;;5109772;28;20028;-76
2023/12/11 08:24:48;;;;;;;15.88;12.23;;;9.90;99.90;;;;;;5136381;28;20023;-76
2023/12/11 08:27:14;;;;;;;15.35;12.07;;;10.00;99.90;;;;;;5118067;28;20030;-76
2023/12/11 08:29:40;;;;;;;17.30;12.27;;;10.10;99.90;;;;;;5136104;28;20047;-76
2023/12/11 08:32:06;;;;;;;16.88;12.40;;;10.10;99.90;;;;;;5136195;28;20065;-76
2023/12/11 08:34:31;;;;;;;15.35;12.38;;;10.10;99.90;;;;;;5113617;28;20027;-76
2023/12/11 08:36:57;;;;;;;16.42;12.93;;;10.20;99.90;;;;;;5128122;28;20444;-76
2023/12/11 08:39:23;;;;;;;18.40;12.93;;;10.20;99.90;;;;;;5139348;27;20102;-76
2023/12/11 08:41:49;;;;;;;16.65;13.25;;;10.20;99.90;;;;;;5121230;27;20062;-76
2023/12/11 08:44:15;;;;;;;14.98;12.25;;;10.20;99.90;;;;;;5121464;27;20424;-76
2023/12/11 08:46:41;;;;;;;18.15;12.85;;;10.20;99.90;;;;;;5139918;27;20103;-76
2023/12/11 08:49:07;;;;;;;14.93;10.90;;;10.10;99.90;;;;;;5139490;27;20072;-76
2023/12/11 08:51:33;;;;;;;16.13;11.40;;;10.20;99.90;;;;;;5139399;27;20031;-76
2023/12/11 08:53:59;;;;;;;15.32;13.05;;;10.20;99.90;;;;;;5117407;28;20521;-76
2023/12/11 08:56:24;;;;;;;18.58;14.05;;;10.30;99.90;;;;;;5130905;27;20100;-76
2023/12/11 08:58:51;;;;;;;15.77;12.95;;;10.40;99.90;;;;;;5117626;28;20034;-77
2023/12/11 09:01:17;;;;;;;16.98;13.07;;;10.40;99.90;;;;;;5130712;27;20027;-76
2023/12/11 09:03:44;;;;;;;17.98;13.60;;;10.50;99.90;;;;;;5117273;28;20069;-76
2023/12/11 09:06:10;;;;;;;16.58;13.45;;;10.50;99.90;;;;;;5130797;27;20030;-77
2023/12/11 09:08:35;;;;;;;18.83;12.88;;;10.60;99.90;;;;;;5138864;27;20023;-77
2023/12/11 09:11:01;;;;;;;16.48;12.63;;;10.70;99.90;;;;;;5139112;27;20587;-77
2023/12/11 09:13:27;;;;;;;13.95;11.15;;;10.70;99.90;;;;;;5139139;27;20023;-77
2023/12/11 09:15:53;;;;;;;16.00;11.43;;;10.80;99.90;;;;;;5139004;27;20026;-78
2023/12/11 09:18:18;;;;;;;17.55;12.35;;;10.90;99.90;;;;;;5139014;27;20024;-77
2023/12/11 09:20:44;;;;;;;15.25;11.48;;;11.00;99.90;;;;;;5117164;28;20034;-78
2023/12/11 09:23:10;;;;;;;17.70;12.13;;;11.10;99.90;;;;;;5137544;27;20019;-77
2023/12/11 09:25:36;;;;;;;18.10;12.20;;;11.20;99.90;;;;;;5120362;27;20023;-78
2023/12/11 09:28:04;;;;;;;12.07;9.25;;;11.20;99.90;;;;;;5099796;28;20016;-79
2023/12/11 09:30:30;;;;;;;9.43;8.43;;;11.30;99.90;;;;;;5131131;27;20020;-78
2023/12/11 09:32:56;;;;;;;12.63;10.25;;;11.40;99.90;;;;;;5138871;27;20533;-78
2023/12/11 09:35:22;;;;;;;13.88;8.88;;;11.50;99.90;;;;;;5120124;27;20077;-78
2023/12/11 09:37:47;;;;;;;15.18;9.00;;;11.60;99.90;;;;;;5138374;27;20026;-78
2023/12/11 09:40:13;;;;;;;9.95;8.23;;;11.70;99.90;;;;;;5138644;27;20031;-78
2023/12/11 09:42:43;;;;;;;11.70;8.32;;;11.70;99.90;;;;;;5138386;27;20027;-78
2023/12/11 09:45:11;;;;;;;10.40;7.88;;;11.90;99.90;;;;;;5138767;27;20059;-78
2023/12/11 09:47:46;;;;;;;9.05;7.53;;;11.90;99.90;;;;;;5120294;27;20019;-78
2023/12/11 09:50:13;;;;;;;13.48;8.13;;;12.00;99.90;;;;;;5119267;27;20380;-79
2023/12/11 09:52:43;;;;;;;11.27;7.53;;;12.00;99.90;;;;;;5119809;27;20363;-78
2023/12/11 09:55:09;;;;;;;11.30;7.72;;;12.20;99.90;;;;;;5138076;27;20497;-78
2023/12/11 09:57:40;;;;;;;13.18;7.47;;;12.20;99.90;;;;;;5138299;27;20102;-78
2023/12/11 10:00:09;;;;;;;9.27;6.97;;;12.30;99.90;;;;;;5138084;27;20068;-78
2023/12/11 10:02:36;;;;;;;8.90;6.82;;;12.30;99.90;;;;;;5138147;27;20023;-78
2023/12/11 10:05:02;;;;;;;8.30;6.68;;;12.40;99.90;;;;;;5137999;27;20027;-79
2023/12/11 10:07:28;;;;;;;8.52;6.70;;;12.40;99.90;;;;;;5138071;27;20029;-79
2023/12/11 10:09:54;;;;;;;10.38;6.18;;;12.50;99.90;;;;;;5119375;27;20098;-78
2023/12/11 10:12:20;;;;;;;7.03;5.35;;;12.60;99.90;;;;;;5138261;27;20023;-79
2023/12/11 10:15:02;;;;;;;9.60;5.28;;;12.60;99.90;;;;;;5137833;27;20019;-79
2023/12/11 10:17:28;;;;;;;6.78;5.78;;;12.70;99.90;;;;;;5119300;27;20031;-78
2023/12/11 10:19:53;;;;;;;8.40;5.97;;;12.70;99.90;;;;;;5112713;27;20031;-79
2023/12/11 10:22:31;;;;;;;9.57;6.10;;;12.80;99.90;;;;;;5118680;27;20030;-78
2023/12/11 10:24:58;;;;;;;6.07;4.97;;;12.90;99.90;;;;;;5119264;27;20034;-78
2023/12/11 10:27:24;;;;;;;6.22;4.97;;;13.00;99.90;;;;;;5137797;27;20022;-78
2023/12/11 10:30:07;;;;;;;6.93;5.35;;;13.10;99.90;;;;;;5119274;27;20502;-79
2023/12/11 10:32:33;;;;;;;7.28;4.50;;;13.10;99.90;;;;;;5118901;27;20086;-78
2023/12/11 10:34:59;;;;;;;6.63;5.15;;;13.20;99.90;;;;;;5119266;27;20486;-79
2023/12/11 10:37:34;;;;;;;8.60;4.90;;;13.20;99.90;;;;;;5137104;27;20427;-79
2023/12/11 10:40:00;;;;;;;9.15;4.15;;;13.30;99.90;;;;;;5137375;27;20088;-79
2023/12/11 10:42:27;;;;;;;6.65;4.15;;;13.50;99.90;;;;;;5137256;27;20099;-79
2023/12/11 10:44:54;;;;;;;6.32;4.20;;;13.60;99.90;;;;;;5137355;27;20080;-79
2023/12/11 10:47:20;;;;;;;6.28;4.30;;;13.70;99.90;;;;;;5137296;27;20433;-79
2023/12/11 10:49:46;;;;;;;5.47;3.72;;;13.80;99.90;;;;;;5137152;27;20080;-79
2023/12/11 10:52:12;;;;;;;6.80;4.00;;;13.90;99.90;;;;;;5136771;27;20023;-78
2023/12/11 10:54:38;;;;;;;7.78;3.97;;;14.00;99.90;;;;;;5136806;27;20119;-79
2023/12/11 10:57:08;;;;;;;8.45;3.80;;;14.20;99.90;;;;;;5115250;28;20489;-79
2023/12/11 10:59:35;;;;;;;6.47;3.63;;;14.30;99.90;;;;;;5127884;27;20047;-78
2023/12/11 11:02:02;;;;;;;6.53;3.42;;;14.40;99.90;;;;;;5135652;27;20030;-79
2023/12/11 11:04:33;;;;;;;7.93;3.38;;;14.50;99.90;;;;;;5118534;27;20404;-79
2023/12/11 11:07:32;;;;;;;4.88;3.33;;;14.60;99.90;;;;;;5136470;27;20099;-79
2023/12/11 11:10:13;;;;;;;4.60;2.97;;;14.60;99.90;;;;;;5118152;27;20019;-79
2023/12/11 11:12:54;;;;;;;9.32;3.55;;;14.70;99.90;;;;;;5114872;28;20081;-79
2023/12/11 11:15:24;;;;;;;6.88;3.53;;;14.80;99.90;;;;;;5105923;27;20030;-79
2023/12/11 11:17:58;;;;;;;4.35;3.17;;;14.90;99.90;;;;;;5116582;28;20391;-79
2023/12/11 11:20:24;;;;;;;4.15;2.83;;;15.00;99.90;;;;;;5118066;27;20064;-78
2023/12/11 11:22:50;;;;;;;4.13;2.88;;;15.10;99.90;;;;;;5136086;27;20031;-77
2023/12/11 11:25:28;;;;;;;5.13;3.00;;;15.20;99.90;;;;;;5136899;27;20027;-78
2023/12/11 11:27:54;;;;;;;5.18;2.70;;;15.30;99.90;;;;;;5118000;28;20023;-78
2023/12/11 11:30:42;;;;;;;5.47;3.10;;;15.40;99.90;;;;;;5136763;28;20023;-77
2023/12/11 11:33:11;;;;;;;4.65;3.15;;;15.40;99.90;;;;;;5123512;28;20383;-76
2023/12/11 11:35:45;;;;;;;5.50;2.88;;;15.50;99.90;;;;;;5117937;28;20031;-75
2023/12/11 11:38:12;;;;;;;6.25;3.53;;;15.60;99.90;;;;;;5136348;28;20073;-76
2023/12/11 11:40:38;;;;;;;7.10;2.90;;;15.70;99.90;;;;;;5136315;28;20376;-78
2023/12/11 11:43:07;;;;;;;4.80;2.90;;;15.70;99.90;;;;;;5136426;28;20070;-78
2023/12/11 11:45:32;;;;;;;6.18;3.03;;;15.80;99.90;;;;;;5136327;28;20502;-78
2023/12/11 11:47:58;;;;;;;6.20;2.50;;;15.90;99.90;;;;;;5136376;28;20023;-78
2023/12/11 11:50:24;;;;;;;3.40;2.47;;;16.00;99.90;;;;;;5117795;28;21248;-78
2023/12/11 11:53:00;;;;;;;7.43;2.72;;;16.00;99.90;;;;;;5135942;28;20031;-78
2023/12/11 11:55:28;;;;;;;4.10;2.58;;;16.10;99.90;;;;;;5117724;28;20049;-75
2023/12/11 11:57:54;;;;;;;4.18;2.40;;;16.20;99.90;;;;;;5117714;28;21027;-78
2023/12/11 12:00:28;;;;;;;6.43;2.65;;;16.30;99.90;;;;;;5136290;28;20094;-77
2023/12/11 12:02:59;;;;;;;2.72;2.00;;;16.30;99.90;;;;;;5136156;28;20023;-78
2023/12/11 12:05:26;;;;;;;3.30;2.47;;;16.40;99.90;;;;;;5117760;28;20031;-78
2023/12/11 12:07:52;;;;;;;3.22;1.95;;;16.50;99.90;;;;;;5117440;28;20031;-78
2023/12/11 12:10:19;;;;;;;4.13;2.45;;;16.50;99.90;;;;;;5136184;28;20020;-78
2023/12/11 12:12:49;;;;;;;3.35;2.50;;;16.60;99.90;;;;;;5136962;27;20128;-78
2023/12/11 12:15:16;;;;;;;4.22;2.80;;;16.60;99.90;;;;;;5121586;27;20045;-78
2023/12/11 12:17:45;;;;;;;3.13;2.10;;;16.70;99.90;;;;;;5140048;27;20031;-76
2023/12/11 12:20:16;;;;;;;5.28;2.28;;;16.60;99.90;;;;;;5133769;27;20027;-76
2023/12/11 12:22:57;;;;;;;3.75;2.00;;;16.60;99.90;;;;;;5139433;27;20019;-78
2023/12/11 12:25:23;;;;;;;3.70;2.47;;;16.70;99.90;;;;;;5140202;27;20367;-78
2023/12/11 12:27:51;;;;;;;4.05;2.53;;;16.70;99.90;;;;;;5121381;27;20089;-78
2023/12/11 12:30:18;;;;;;;6.43;2.60;;;16.70;99.90;;;;;;5121219;27;20068;-78
2023/12/11 12:32:44;;;;;;;4.43;2.30;;;16.80;99.90;;;;;;5121269;27;20029;-78
2023/12/11 12:35:10;;;;;;;3.80;2.42;;;16.80;99.90;;;;;;5139733;27;20505;-78
2023/12/11 12:37:37;;;;;;;2.95;1.92;;;16.80;99.90;;;;;;5139318;27;20498;-78
2023/12/11 12:40:06;;;;;;;3.70;2.20;;;16.80;99.90;;;;;;5139605;27;20019;-78